Time;durP1;ratioP1;P1;durP2;ratioP2;P2;SDS_P1;SDS_P2;PMS_P1;PMS_P2;Temp;Humidity;BMP_temperature;BMP_pressure;BME280_temperature;BME280_humidity;BME280_pressure;Samples;Min_cycle;Max_cycle;Signal;HPM_P1;HPM_P2
2024/01/19 00:00:39;;;;;;;12.67;12.17;;;21.20;42.20;;;;;;5012820;28;20881;-69
2024/01/19 00:03:06;;;;;;;12.13;11.73;;;21.20;42.10;;;;;;5012707;28;20485;-68
2024/01/19 00:05:33;;;;;;;12.57;12.13;;;21.20;42.10;;;;;;5012516;28;20493;-68
2024/01/19 00:08:02;;;;;;;12.03;11.63;;;21.20;42.20;;;;;;5012788;28;20446;-68
2024/01/19 00:10:30;;;;;;;12.50;12.00;;;21.20;42.20;;;;;;5008200;28;20510;-69
2024/01/19 00:12:57;;;;;;;12.20;11.70;;;21.20;42.20;;;;;;5012728;28;20457;-68
2024/01/19 00:15:24;;;;;;;12.07;11.57;;;21.20;42.20;;;;;;5012539;28;20501;-68
2024/01/19 00:17:51;;;;;;;12.03;11.43;;;21.20;42.20;;;;;;4996777;28;20493;-68
2024/01/19 00:20:18;;;;;;;11.47;10.97;;;21.20;42.30;;;;;;5012616;28;20449;-68
2024/01/19 00:22:45;;;;;;;11.73;11.17;;;21.20;42.20;;;;;;5012488;28;20509;-69
2024/01/19 00:25:13;;;;;;;11.77;11.37;;;21.10;42.20;;;;;;5009920;28;20474;-69
2024/01/19 00:27:40;;;;;;;12.03;11.43;;;21.10;42.20;;;;;;5012336;28;20484;-68
2024/01/19 00:30:08;;;;;;;11.30;10.90;;;21.10;42.20;;;;;;5012545;28;20488;-68
2024/01/19 00:32:34;;;;;;;11.50;11.10;;;21.10;42.30;;;;;;5012213;28;20446;-68
2024/01/19 00:35:01;;;;;;;11.70;11.20;;;21.10;42.30;;;;;;5012126;28;20510;-69
2024/01/19 00:37:28;;;;;;;12.70;12.10;;;21.10;42.30;;;;;;5012169;28;20481;-68
2024/01/19 00:39:55;;;;;;;12.27;11.77;;;21.10;42.30;;;;;;4994234;28;20477;-69
2024/01/19 00:42:23;;;;;;;11.33;10.93;;;21.10;42.30;;;;;;4999771;28;20478;-68
2024/01/19 00:44:50;;;;;;;11.33;10.93;;;21.10;42.30;;;;;;5011838;28;20509;-69
2024/01/19 00:47:17;;;;;;;11.67;11.27;;;21.10;42.30;;;;;;5012235;28;20878;-68
2024/01/19 00:49:44;;;;;;;12.00;11.40;;;21.10;42.30;;;;;;5012307;28;20438;-69
2024/01/19 00:52:11;;;;;;;11.63;11.20;;;21.00;42.20;;;;;;5011881;28;20452;-69
2024/01/19 00:54:38;;;;;;;11.73;11.30;;;21.00;42.20;;;;;;5004637;28;20517;-68
2024/01/19 00:57:05;;;;;;;12.13;11.73;;;21.00;42.20;;;;;;5005593;28;21007;-69
2024/01/19 00:59:34;;;;;;;12.00;11.50;;;21.00;42.20;;;;;;5012069;28;20474;-68
2024/01/19 01:02:00;;;;;;;11.17;10.77;;;21.00;42.10;;;;;;5012028;28;20470;-68
2024/01/19 01:04:27;;;;;;;14.20;13.60;;;21.00;42.20;;;;;;5011722;28;20540;-69
2024/01/19 01:06:54;;;;;;;11.43;11.03;;;21.00;42.20;;;;;;5011714;28;20555;-68
2024/01/19 01:09:21;;;;;;;11.10;10.70;;;21.00;42.20;;;;;;5004099;28;20469;-68
2024/01/19 01:11:48;;;;;;;10.77;10.37;;;21.00;42.20;;;;;;5011597;28;20474;-69
2024/01/19 01:14:15;;;;;;;11.40;11.00;;;21.00;42.20;;;;;;5011942;28;20474;-68
2024/01/19 01:16:43;;;;;;;10.67;10.33;;;21.00;42.20;;;;;;5011682;28;20473;-69
2024/01/19 01:19:10;;;;;;;11.90;11.50;;;21.00;42.30;;;;;;5011961;28;20438;-68
2024/01/19 01:21:37;;;;;;;11.57;11.07;;;21.00;42.30;;;;;;5008865;28;20483;-68
2024/01/19 01:24:04;;;;;;;11.97;11.47;;;21.00;42.30;;;;;;4999331;28;20561;-68
2024/01/19 01:26:31;;;;;;;12.00;11.50;;;20.90;42.20;;;;;;5011625;28;20926;-69
2024/01/19 01:28:58;;;;;;;11.73;11.23;;;20.90;42.20;;;;;;5007103;28;20495;-68
2024/01/19 01:31:25;;;;;;;11.47;11.07;;;20.90;42.20;;;;;;5007829;28;20484;-69
2024/01/19 01:33:53;;;;;;;11.60;11.13;;;20.90;42.20;;;;;;5011481;28;20470;-68
2024/01/19 01:36:20;;;;;;;11.50;11.10;;;20.90;42.20;;;;;;5012000;28;20501;-67
2024/01/19 01:38:47;;;;;;;12.20;11.70;;;20.90;42.50;;;;;;5006651;28;20474;-67
2024/01/19 01:41:14;;;;;;;11.20;10.70;;;20.90;42.30;;;;;;5011512;28;20486;-67
2024/01/19 01:43:41;;;;;;;10.70;10.30;;;20.90;42.20;;;;;;5011259;28;20513;-68
2024/01/19 01:46:08;;;;;;;11.80;11.30;;;20.90;42.20;;;;;;5011513;28;20498;-67
2024/01/19 01:48:35;;;;;;;11.87;11.37;;;20.90;42.20;;;;;;5011387;28;20477;-67
2024/01/19 01:51:04;;;;;;;11.20;10.80;;;20.90;42.30;;;;;;5011671;28;20441;-67
2024/01/19 01:53:32;;;;;;;11.50;11.00;;;20.90;42.40;;;;;;5011190;28;20445;-70
2024/01/19 01:56:00;;;;;;;12.13;11.63;;;20.90;42.40;;;;;;4995518;28;20493;-67
2024/01/19 01:58:27;;;;;;;12.00;11.50;;;20.90;42.40;;;;;;5003187;28;20996;-67
2024/01/19 02:00:54;;;;;;;11.00;10.60;;;20.90;42.40;;;;;;5011223;28;20478;-67
2024/01/19 02:03:21;;;;;;;11.83;11.40;;;20.80;42.30;;;;;;5011559;28;21020;-70
2024/01/19 02:05:48;;;;;;;11.83;11.30;;;20.80;42.30;;;;;;5013212;28;20496;-67
2024/01/19 02:08:16;;;;;;;12.37;11.70;;;20.80;42.30;;;;;;5015022;28;21028;-67
2024/01/19 02:10:43;;;;;;;11.43;11.00;;;20.80;42.30;;;;;;5014821;28;20481;-70
2024/01/19 02:13:10;;;;;;;11.97;11.47;;;20.80;42.30;;;;;;5012091;28;20438;-67
2024/01/19 02:15:37;;;;;;;11.10;10.70;;;20.80;42.30;;;;;;5014788;28;20605;-69
2024/01/19 02:18:05;;;;;;;11.33;10.93;;;20.90;42.30;;;;;;5014912;28;20539;-67
2024/01/19 02:20:31;;;;;;;11.20;10.70;;;20.80;42.20;;;;;;5014623;28;20446;-67
2024/01/19 02:23:00;;;;;;;11.20;10.80;;;20.80;42.30;;;;;;5014599;28;20446;-67
2024/01/19 02:25:28;;;;;;;11.00;10.60;;;20.80;42.20;;;;;;5014652;28;20462;-67
2024/01/19 02:27:56;;;;;;;11.60;11.20;;;20.80;42.30;;;;;;4998593;28;20476;-67
2024/01/19 02:30:23;;;;;;;11.70;11.23;;;20.80;42.30;;;;;;5009375;28;20445;-69
2024/01/19 02:32:50;;;;;;;11.20;10.83;;;20.80;42.30;;;;;;5014815;28;20470;-67
2024/01/19 02:35:17;;;;;;;11.73;11.27;;;20.80;42.20;;;;;;5014600;28;20534;-67
2024/01/19 02:37:44;;;;;;;10.67;10.27;;;20.80;42.30;;;;;;5014434;28;20446;-67
2024/01/19 02:40:12;;;;;;;10.50;10.20;;;20.80;42.30;;;;;;5014575;28;20473;-68
2024/01/19 02:42:40;;;;;;;11.13;10.73;;;20.80;42.30;;;;;;5012406;28;20504;-67
2024/01/19 02:45:07;;;;;;;11.03;10.73;;;20.80;42.30;;;;;;5014274;28;20524;-67
2024/01/19 02:47:34;;;;;;;11.00;10.60;;;20.80;42.30;;;;;;5014189;28;20609;-67
2024/01/19 02:50:01;;;;;;;11.00;10.60;;;20.80;42.20;;;;;;5014168;28;20473;-67
2024/01/19 02:52:28;;;;;;;12.20;11.70;;;20.80;42.20;;;;;;5005375;28;20878;-68
2024/01/19 02:54:55;;;;;;;10.87;10.47;;;20.80;42.20;;;;;;5001484;28;20481;-67
2024/01/19 02:57:22;;;;;;;10.97;10.60;;;20.80;42.30;;;;;;5014105;28;20487;-70
2024/01/19 02:59:50;;;;;;;11.03;10.53;;;20.80;42.30;;;;;;5014001;28;20482;-67
2024/01/19 03:02:17;;;;;;;10.27;9.97;;;20.80;42.30;;;;;;5014023;28;20910;-67
2024/01/19 03:04:44;;;;;;;11.50;11.00;;;20.80;42.30;;;;;;5010610;28;20523;-67
2024/01/19 03:07:12;;;;;;;10.63;10.13;;;20.80;42.30;;;;;;5007943;28;20913;-67
2024/01/19 03:09:39;;;;;;;11.50;11.07;;;20.80;42.30;;;;;;5013734;28;20852;-67
2024/01/19 03:12:07;;;;;;;11.10;10.70;;;20.70;42.30;;;;;;5013886;28;20474;-69
2024/01/19 03:14:34;;;;;;;11.50;11.00;;;20.70;42.30;;;;;;5004796;28;20925;-67
2024/01/19 03:17:04;;;;;;;10.90;10.50;;;20.70;42.30;;;;;;5013702;28;20492;-67
2024/01/19 03:19:31;;;;;;;11.83;11.23;;;20.70;42.30;;;;;;5013915;28;20929;-68
2024/01/19 03:21:58;;;;;;;11.90;11.40;;;20.70;42.30;;;;;;5013594;28;20457;-68
2024/01/19 03:24:25;;;;;;;11.10;10.60;;;20.70;42.30;;;;;;5013405;28;20516;-67
2024/01/19 03:26:52;;;;;;;11.90;11.30;;;20.70;42.30;;;;;;5013336;28;20497;-67
2024/01/19 03:29:20;;;;;;;11.67;11.17;;;20.70;42.30;;;;;;5007179;28;20930;-67
2024/01/19 03:31:47;;;;;;;11.50;11.10;;;20.70;42.20;;;;;;5013577;28;20545;-67
2024/01/19 03:34:15;;;;;;;11.47;11.07;;;20.70;42.30;;;;;;5013374;28;20434;-67
2024/01/19 03:36:42;;;;;;;11.77;11.37;;;20.70;42.20;;;;;;5013202;28;20917;-67
2024/01/19 03:39:09;;;;;;;11.67;11.20;;;20.70;42.30;;;;;;5013349;28;20878;-67
2024/01/19 03:41:36;;;;;;;11.27;10.87;;;20.70;42.20;;;;;;5013239;28;20937;-67
2024/01/19 03:44:03;;;;;;;11.07;10.67;;;20.70;42.20;;;;;;5013263;28;20548;-69
2024/01/19 03:46:30;;;;;;;12.17;11.57;;;20.70;42.20;;;;;;4999084;28;20494;-67
2024/01/19 03:48:57;;;;;;;11.10;10.70;;;20.70;42.20;;;;;;5013179;28;20478;-67
2024/01/19 03:51:25;;;;;;;11.67;11.17;;;20.70;42.20;;;;;;5013195;28;20468;-67
2024/01/19 03:53:52;;;;;;;11.87;11.40;;;20.70;42.30;;;;;;5013071;28;21024;-67
2024/01/19 03:56:19;;;;;;;11.40;11.00;;;20.70;42.80;;;;;;5012907;28;20515;-67
2024/01/19 03:58:45;;;;;;;11.00;10.60;;;20.70;42.20;;;;;;5012954;28;20477;-67
2024/01/19 04:01:13;;;;;;;10.50;10.10;;;20.70;42.20;;;;;;5012891;28;20474;-67
2024/01/19 04:03:39;;;;;;;12.00;11.50;;;20.70;42.30;;;;;;5001787;28;20449;-68
2024/01/19 04:06:06;;;;;;;11.40;10.90;;;20.70;42.20;;;;;;5013015;28;20488;-67
2024/01/19 04:08:35;;;;;;;10.80;10.40;;;20.70;42.30;;;;;;5013054;28;20469;-69
2024/01/19 04:11:01;;;;;;;12.40;11.83;;;20.70;42.20;;;;;;4997236;28;20477;-70
2024/01/19 04:13:28;;;;;;;11.57;11.17;;;20.70;42.20;;;;;;5012681;28;20501;-67
2024/01/19 04:15:55;;;;;;;11.20;10.80;;;20.70;42.30;;;;;;5012457;28;20494;-67
2024/01/19 04:18:22;;;;;;;11.70;11.20;;;20.70;42.20;;;;;;5012782;28;20441;-67
2024/01/19 04:20:49;;;;;;;11.90;11.50;;;20.70;42.20;;;;;;4996681;28;20481;-67
2024/01/19 04:23:16;;;;;;;12.23;11.73;;;20.70;42.20;;;;;;5012348;28;20478;-68
2024/01/19 04:25:44;;;;;;;11.97;11.40;;;20.70;42.20;;;;;;5012198;28;20520;-67
2024/01/19 04:28:11;;;;;;;11.60;11.10;;;20.70;42.20;;;;;;5004774;28;20476;-67
2024/01/19 04:30:38;;;;;;;11.57;11.17;;;20.70;42.20;;;;;;5001542;28;20477;-67
2024/01/19 04:33:05;;;;;;;12.27;11.67;;;20.70;42.20;;;;;;5012256;28;20481;-67
2024/01/19 04:35:32;;;;;;;11.40;11.00;;;20.60;42.10;;;;;;5012357;28;20502;-69
2024/01/19 04:37:59;;;;;;;11.50;11.00;;;20.70;42.20;;;;;;5012174;28;20790;-67
2024/01/19 04:40:25;;;;;;;11.93;11.43;;;20.70;42.20;;;;;;5012159;28;20470;-66
2024/01/19 04:42:54;;;;;;;11.83;11.40;;;20.70;42.30;;;;;;5012082;28;20485;-67
2024/01/19 04:45:21;;;;;;;12.37;11.77;;;20.60;42.20;;;;;;5008659;28;20482;-67
2024/01/19 04:47:48;;;;;;;11.80;11.40;;;20.60;42.20;;;;;;5012284;28;20576;-67
2024/01/19 04:50:15;;;;;;;11.27;10.90;;;20.60;42.20;;;;;;5012043;28;20478;-67
2024/01/19 04:52:42;;;;;;;12.03;11.43;;;20.60;42.20;;;;;;4996048;28;20474;-67
2024/01/19 04:55:09;;;;;;;11.73;11.23;;;20.60;42.20;;;;;;5011957;28;20528;-68
2024/01/19 04:57:36;;;;;;;11.33;10.93;;;20.60;42.30;;;;;;5012234;28;20473;-67
2024/01/19 05:00:05;;;;;;;11.20;10.80;;;20.70;42.50;;;;;;4991523;28;20867;-66
2024/01/19 05:02:32;;;;;;;12.23;11.77;;;20.70;42.50;;;;;;5004071;28;20528;-67
2024/01/19 05:04:59;;;;;;;12.70;12.20;;;20.70;42.50;;;;;;5011736;28;20492;-67
2024/01/19 05:07:27;;;;;;;11.90;11.30;;;20.60;42.40;;;;;;5011979;28;20470;-67
2024/01/19 05:09:53;;;;;;;11.63;11.23;;;20.60;42.40;;;;;;5011837;28;20442;-67
2024/01/19 05:12:20;;;;;;;11.00;10.70;;;20.60;42.40;;;;;;5011720;28;20474;-68
2024/01/19 05:14:47;;;;;;;11.63;11.17;;;20.60;42.40;;;;;;5011756;28;20474;-67
2024/01/19 05:17:16;;;;;;;12.53;12.03;;;20.60;42.40;;;;;;5005782;28;20471;-66
2024/01/19 05:19:42;;;;;;;12.37;11.87;;;20.60;42.30;;;;;;4999343;28;20475;-69
2024/01/19 05:22:09;;;;;;;11.87;11.37;;;20.60;42.30;;;;;;5011819;28;20473;-67
2024/01/19 05:24:41;;;;;;;12.63;12.13;;;20.60;42.20;;;;;;5011666;28;20481;-67
2024/01/19 05:27:08;;;;;;;12.30;11.80;;;20.60;42.20;;;;;;4997122;28;20442;-67
2024/01/19 05:29:35;;;;;;;12.90;12.20;;;20.60;42.20;;;;;;5007479;28;20470;-69
2024/01/19 05:32:02;;;;;;;13.77;12.83;;;20.70;42.40;;;;;;5011465;28;20438;-67
2024/01/19 05:34:30;;;;;;;14.77;13.67;;;20.70;42.70;;;;;;5001163;28;20479;-69
2024/01/19 05:36:57;;;;;;;15.27;13.83;;;20.70;43.40;;;;;;5000624;28;20475;-70
2024/01/19 05:39:24;;;;;;;15.77;14.63;;;20.70;44.90;;;;;;5000977;28;20474;-65
2024/01/19 05:41:51;;;;;;;13.90;12.80;;;20.80;46.20;;;;;;5015375;28;20478;-65
2024/01/19 05:44:18;;;;;;;14.10;13.00;;;20.80;45.70;;;;;;5015530;28;20466;-65
2024/01/19 05:46:45;;;;;;;14.20;13.00;;;20.80;45.50;;;;;;5015218;28;20883;-65
2024/01/19 05:49:11;;;;;;;16.43;13.40;;;20.80;45.40;;;;;;5015435;28;20474;-65
2024/01/19 05:51:40;;;;;;;12.73;11.83;;;20.80;45.20;;;;;;5015045;28;20481;-65
2024/01/19 05:54:06;;;;;;;14.47;12.80;;;20.80;44.90;;;;;;5015148;28;20477;-65
2024/01/19 05:56:33;;;;;;;15.37;14.03;;;20.90;44.80;;;;;;5015024;28;20496;-65
2024/01/19 05:59:00;;;;;;;15.57;14.10;;;20.90;44.60;;;;;;5015197;28;20480;-65
2024/01/19 06:01:27;;;;;;;14.10;13.40;;;20.90;44.30;;;;;;5015026;28;20478;-65
2024/01/19 06:03:54;;;;;;;15.60;14.20;;;20.90;44.20;;;;;;5014957;28;20469;-65
2024/01/19 06:06:21;;;;;;;13.63;12.93;;;20.90;44.00;;;;;;5014758;28;20505;-65
2024/01/19 06:08:49;;;;;;;14.50;13.70;;;20.90;43.80;;;;;;5014899;28;20466;-65
2024/01/19 06:11:16;;;;;;;14.27;13.03;;;21.00;43.70;;;;;;5014858;28;20489;-65
2024/01/19 06:13:44;;;;;;;12.63;12.00;;;21.00;43.60;;;;;;5014841;28;20473;-65
2024/01/19 06:16:11;;;;;;;13.07;12.13;;;21.00;43.40;;;;;;5014840;28;20873;-65
2024/01/19 06:18:38;;;;;;;12.50;11.80;;;21.00;43.20;;;;;;5015015;28;20480;-66
2024/01/19 06:21:10;;;;;;;14.07;12.97;;;21.00;43.10;;;;;;5014732;28;20454;-65
2024/01/19 06:23:38;;;;;;;13.07;12.40;;;21.00;43.00;;;;;;5014730;28;20470;-65
2024/01/19 06:26:10;;;;;;;14.10;13.30;;;21.00;42.80;;;;;;4998416;28;20631;-65
2024/01/19 06:28:37;;;;;;;14.43;13.80;;;21.00;42.70;;;;;;5014990;28;20446;-65
2024/01/19 06:31:05;;;;;;;13.40;12.90;;;21.00;42.50;;;;;;5014556;28;20465;-65
2024/01/19 06:33:31;;;;;;;13.73;13.13;;;21.00;42.40;;;;;;5014609;28;20466;-65
2024/01/19 06:35:58;;;;;;;12.87;12.17;;;21.10;42.40;;;;;;5014162;28;20888;-65
2024/01/19 06:38:25;;;;;;;13.23;12.53;;;21.10;42.30;;;;;;5014744;28;20862;-65
2024/01/19 06:40:52;;;;;;;13.87;12.80;;;21.10;42.20;;;;;;5014282;28;20485;-65
2024/01/19 06:43:21;;;;;;;12.40;11.83;;;21.10;42.10;;;;;;5014325;28;20473;-66
2024/01/19 06:45:48;;;;;;;12.33;11.70;;;21.10;42.00;;;;;;5013886;28;20580;-66
2024/01/19 06:48:15;;;;;;;12.60;12.10;;;21.00;41.80;;;;;;5014213;28;20452;-65
2024/01/19 06:50:42;;;;;;;13.57;12.87;;;21.10;41.70;;;;;;5013552;28;20463;-65
2024/01/19 06:53:09;;;;;;;13.17;12.47;;;21.10;41.70;;;;;;5014099;28;20497;-65
2024/01/19 06:55:36;;;;;;;12.87;12.17;;;21.10;41.60;;;;;;5013997;28;20458;-65
2024/01/19 06:58:03;;;;;;;13.13;12.43;;;21.10;41.50;;;;;;5013961;28;20860;-65
2024/01/19 07:00:31;;;;;;;12.60;12.00;;;21.10;41.50;;;;;;5013983;28;20552;-66
2024/01/19 07:02:59;;;;;;;13.30;12.70;;;21.10;41.40;;;;;;5013703;28;20450;-65
2024/01/19 07:05:26;;;;;;;12.37;11.77;;;21.10;41.40;;;;;;5013797;28;20891;-65
2024/01/19 07:07:53;;;;;;;11.60;11.30;;;21.10;41.30;;;;;;5013901;28;20481;-66
2024/01/19 07:10:21;;;;;;;13.60;12.90;;;21.10;41.10;;;;;;5013869;28;20442;-65
2024/01/19 07:12:48;;;;;;;13.33;12.70;;;21.10;41.10;;;;;;5013800;28;20438;-66
2024/01/19 07:15:15;;;;;;;12.97;12.17;;;21.10;41.10;;;;;;5013775;28;20593;-65
2024/01/19 07:17:43;;;;;;;12.97;12.13;;;21.10;41.00;;;;;;5013683;28;20554;-65
2024/01/19 07:20:11;;;;;;;12.00;11.47;;;21.00;40.90;;;;;;4998340;28;20442;-65
2024/01/19 07:22:37;;;;;;;12.00;11.50;;;21.00;40.80;;;;;;5013605;28;20534;-65
2024/01/19 07:25:05;;;;;;;12.83;12.33;;;21.10;40.80;;;;;;5013265;28;20513;-65
2024/01/19 07:27:32;;;;;;;12.93;12.43;;;21.00;40.70;;;;;;5013370;28;20504;-65
2024/01/19 07:29:59;;;;;;;12.13;11.73;;;21.00;40.70;;;;;;5013217;28;20474;-66
2024/01/19 07:32:26;;;;;;;11.80;11.40;;;21.00;40.60;;;;;;5013378;28;20480;-65
2024/01/19 07:34:54;;;;;;;12.33;11.83;;;21.00;40.60;;;;;;5013115;28;20552;-66
2024/01/19 07:37:21;;;;;;;12.10;11.70;;;21.00;40.50;;;;;;5078116;22;20533;-63
2024/01/19 07:39:48;;;;;;;12.33;11.73;;;21.00;40.50;;;;;;5041796;28;20469;-63
2024/01/19 07:42:15;;;;;;;13.73;13.23;;;21.00;40.40;;;;;;5044544;28;20463;-63
2024/01/19 07:44:42;;;;;;;13.37;12.87;;;21.00;40.40;;;;;;5044437;28;20472;-63
2024/01/19 07:47:09;;;;;;;12.37;11.90;;;21.00;40.40;;;;;;5032852;28;20873;-63
2024/01/19 07:49:36;;;;;;;12.97;12.27;;;20.90;40.30;;;;;;5041037;28;20534;-63
2024/01/19 07:52:05;;;;;;;12.93;12.53;;;20.90;40.20;;;;;;5043547;28;20473;-64
2024/01/19 07:54:32;;;;;;;12.70;12.30;;;20.90;40.20;;;;;;5044270;28;20494;-63
2024/01/19 07:56:59;;;;;;;12.67;11.87;;;20.90;40.20;;;;;;5042149;28;20484;-62
2024/01/19 07:59:26;;;;;;;12.27;11.87;;;20.90;40.20;;;;;;5040745;28;20445;-63
2024/01/19 08:01:53;;;;;;;12.73;12.23;;;20.90;40.20;;;;;;5041865;28;20472;-63
2024/01/19 08:04:20;;;;;;;13.63;13.03;;;20.90;40.10;;;;;;5043603;28;20980;-63
2024/01/19 08:06:47;;;;;;;13.37;12.87;;;20.90;40.10;;;;;;5043449;28;20480;-63
2024/01/19 08:09:15;;;;;;;13.43;12.90;;;20.90;40.10;;;;;;5040695;28;20437;-63
2024/01/19 08:11:42;;;;;;;12.30;11.90;;;20.90;40.10;;;;;;5040481;28;20948;-63
2024/01/19 08:14:09;;;;;;;12.73;12.37;;;20.90;40.10;;;;;;5032398;28;20472;-63
2024/01/19 08:16:36;;;;;;;13.57;12.97;;;20.90;40.10;;;;;;5040406;28;20485;-63
2024/01/19 08:19:03;;;;;;;12.83;12.47;;;20.90;40.10;;;;;;5042895;28;20453;-63
2024/01/19 08:21:30;;;;;;;13.70;13.17;;;20.90;40.00;;;;;;5043725;28;20970;-63
2024/01/19 08:23:57;;;;;;;12.90;12.50;;;20.80;39.90;;;;;;5042098;28;20875;-63
2024/01/19 08:26:25;;;;;;;13.87;13.00;;;20.80;39.90;;;;;;5040256;28;20580;-63
2024/01/19 08:28:52;;;;;;;13.17;12.70;;;20.80;39.90;;;;;;5041100;28;20448;-63
2024/01/19 08:31:20;;;;;;;12.53;12.20;;;20.80;39.90;;;;;;5043465;28;20479;-63
2024/01/19 08:33:47;;;;;;;12.53;12.23;;;20.80;39.80;;;;;;5043118;28;20498;-63
2024/01/19 08:36:14;;;;;;;12.27;11.90;;;20.80;39.80;;;;;;5039979;28;20496;-63
2024/01/19 08:38:41;;;;;;;12.10;11.70;;;20.80;39.80;;;;;;5040075;28;20491;-63
2024/01/19 08:41:08;;;;;;;13.00;12.60;;;20.80;39.80;;;;;;5043076;28;20436;-62
2024/01/19 08:43:36;;;;;;;13.53;12.93;;;20.80;39.80;;;;;;5043368;28;20472;-63
2024/01/19 08:46:04;;;;;;;12.30;12.00;;;20.80;39.80;;;;;;5040730;28;20508;-63
2024/01/19 08:48:32;;;;;;;13.60;13.20;;;20.80;39.80;;;;;;5039949;28;20437;-63
2024/01/19 08:50:59;;;;;;;12.83;12.43;;;20.70;39.70;;;;;;5041800;28;20944;-63
2024/01/19 08:53:26;;;;;;;13.50;13.10;;;20.80;39.70;;;;;;5043265;28;20811;-63
2024/01/19 08:55:53;;;;;;;13.00;12.60;;;20.70;39.70;;;;;;5042133;28;20834;-63
2024/01/19 08:58:20;;;;;;;13.30;12.90;;;20.70;39.60;;;;;;5039634;28;20451;-63
2024/01/19 09:00:48;;;;;;;12.40;12.10;;;20.70;39.60;;;;;;5039676;28;20473;-62
2024/01/19 09:03:16;;;;;;;13.07;12.67;;;20.70;39.60;;;;;;5043300;28;20535;-63
2024/01/19 09:05:43;;;;;;;13.43;12.93;;;20.70;39.60;;;;;;5043037;28;20898;-63
2024/01/19 09:08:10;;;;;;;14.57;14.07;;;20.70;39.60;;;;;;5039749;28;20473;-63
2024/01/19 09:10:37;;;;;;;13.10;12.70;;;20.60;39.50;;;;;;5039625;28;20940;-63
2024/01/19 09:13:04;;;;;;;13.50;13.03;;;20.70;39.60;;;;;;5041915;28;20479;-63
2024/01/19 09:15:31;;;;;;;13.27;12.77;;;20.60;39.50;;;;;;5042771;28;20930;-63
2024/01/19 09:17:59;;;;;;;13.97;13.47;;;20.60;40.10;;;;;;5041419;28;20943;-62
2024/01/19 09:20:26;;;;;;;13.30;12.90;;;20.60;39.60;;;;;;5039700;28;20449;-62
2024/01/19 09:22:53;;;;;;;14.23;13.50;;;20.70;39.60;;;;;;5040293;28;20476;-63
2024/01/19 09:25:20;;;;;;;14.23;13.63;;;20.60;39.50;;;;;;5042718;28;20498;-62
2024/01/19 09:27:47;;;;;;;13.30;12.90;;;20.60;39.50;;;;;;5042900;28;21145;-63
2024/01/19 09:30:16;;;;;;;13.63;13.23;;;20.60;39.50;;;;;;5039490;28;20488;-61
2024/01/19 09:32:43;;;;;;;14.07;13.67;;;20.60;39.50;;;;;;5039411;28;20932;-62
2024/01/19 09:35:11;;;;;;;15.00;14.30;;;20.60;39.50;;;;;;5042540;28;20890;-63
2024/01/19 09:37:38;;;;;;;13.50;13.00;;;20.60;39.40;;;;;;5042543;28;20488;-62
2024/01/19 09:40:05;;;;;;;13.27;12.87;;;20.60;39.40;;;;;;5040401;28;20436;-63
2024/01/19 09:42:34;;;;;;;13.13;12.73;;;20.60;39.40;;;;;;5039200;28;20955;-63
2024/01/19 09:45:03;;;;;;;13.80;13.30;;;20.60;39.40;;;;;;5041022;28;20477;-63
2024/01/19 09:47:41;;;;;;;13.30;12.90;;;20.60;39.40;;;;;;5042502;28;20562;-63
2024/01/19 09:50:12;;;;;;;14.70;14.20;;;20.60;39.40;;;;;;5039682;28;20479;-62
2024/01/19 09:52:48;;;;;;;14.80;14.20;;;20.50;39.30;;;;;;5039294;28;20990;-63
2024/01/19 09:55:16;;;;;;;14.30;13.80;;;20.50;39.30;;;;;;5031042;28;20437;-63
2024/01/19 09:57:46;;;;;;;13.50;13.10;;;20.50;39.30;;;;;;5039128;28;20476;-63
2024/01/19 10:00:14;;;;;;;13.63;13.23;;;20.50;39.30;;;;;;5042924;28;20909;-63
2024/01/19 10:02:46;;;;;;;14.17;13.67;;;20.50;39.30;;;;;;5042394;28;20944;-63
2024/01/19 10:05:15;;;;;;;13.83;13.33;;;20.50;39.30;;;;;;5039160;28;20443;-63
2024/01/19 10:07:43;;;;;;;14.17;13.67;;;20.50;39.30;;;;;;5039004;28;20481;-63
2024/01/19 10:10:11;;;;;;;13.33;12.93;;;20.50;39.30;;;;;;5041911;28;20444;-63
2024/01/19 10:12:38;;;;;;;13.90;13.40;;;20.50;39.80;;;;;;5042350;28;20448;-63
2024/01/19 10:15:09;;;;;;;13.20;12.80;;;20.50;39.20;;;;;;5040115;28;20447;-63
2024/01/19 10:17:37;;;;;;;13.70;13.30;;;20.40;39.20;;;;;;5039126;28;21003;-63
2024/01/19 10:20:06;;;;;;;13.40;12.90;;;20.50;39.30;;;;;;5040964;28;20472;-63
2024/01/19 10:22:34;;;;;;;13.57;13.17;;;20.40;39.20;;;;;;5042374;28;20523;-62
2024/01/19 10:25:02;;;;;;;13.93;13.43;;;20.40;39.20;;;;;;5040976;28;20447;-63
2024/01/19 10:27:45;;;;;;;13.50;13.10;;;20.40;39.30;;;;;;5041763;28;20556;-63
2024/01/19 10:30:14;;;;;;;14.17;13.67;;;20.40;39.30;;;;;;5045344;28;20931;-63
2024/01/19 10:32:42;;;;;;;13.70;13.30;;;20.40;39.30;;;;;;5045786;28;20522;-63
2024/01/19 10:35:11;;;;;;;13.10;12.70;;;20.40;39.30;;;;;;5043102;28;20502;-63
2024/01/19 10:37:39;;;;;;;13.20;12.80;;;20.40;39.30;;;;;;5042249;28;20972;-62
2024/01/19 10:40:18;;;;;;;13.33;12.83;;;20.40;39.30;;;;;;5044604;28;20484;-62
2024/01/19 10:42:46;;;;;;;14.20;13.60;;;20.40;39.30;;;;;;5045778;28;20443;-63
2024/01/19 10:45:18;;;;;;;13.00;12.60;;;20.40;39.30;;;;;;5042381;28;20811;-63
2024/01/19 10:47:46;;;;;;;12.67;12.27;;;20.40;39.30;;;;;;5042293;28;20505;-62
2024/01/19 10:50:14;;;;;;;13.50;12.90;;;20.40;39.30;;;;;;5045189;28;20480;-63
2024/01/19 10:52:44;;;;;;;13.50;13.10;;;20.40;39.30;;;;;;5045349;28;20462;-63
2024/01/19 10:55:18;;;;;;;13.20;12.80;;;20.40;39.30;;;;;;5042610;28;20476;-63
2024/01/19 10:57:45;;;;;;;13.67;13.27;;;20.40;39.30;;;;;;5042068;28;20433;-63
2024/01/19 11:00:20;;;;;;;13.30;12.77;;;20.40;39.30;;;;;;5044927;28;20467;-62
2024/01/19 11:02:49;;;;;;;12.80;12.40;;;20.40;39.20;;;;;;5045266;28;20478;-62
2024/01/19 11:05:18;;;;;;;13.30;12.80;;;20.40;39.20;;;;;;5033741;28;20449;-62
2024/01/19 11:07:46;;;;;;;13.20;12.80;;;20.40;39.20;;;;;;5041865;28;20487;-62
2024/01/19 11:10:13;;;;;;;12.63;12.23;;;20.30;39.10;;;;;;5044742;28;20881;-63
2024/01/19 11:12:48;;;;;;;12.80;12.40;;;20.40;39.20;;;;;;5045077;28;20830;-62
2024/01/19 11:15:21;;;;;;;12.67;12.27;;;20.30;39.10;;;;;;5041797;28;20785;-63
2024/01/19 11:17:48;;;;;;;12.57;12.27;;;20.30;39.10;;;;;;5041816;28;20441;-63
2024/01/19 11:20:15;;;;;;;13.20;12.70;;;20.30;39.10;;;;;;5044581;28;20887;-63
2024/01/19 11:22:43;;;;;;;13.00;12.60;;;20.30;39.00;;;;;;5045065;28;20806;-62
2024/01/19 11:25:16;;;;;;;13.90;13.27;;;20.30;39.00;;;;;;5042518;28;20472;-63
2024/01/19 11:27:51;;;;;;;14.23;13.73;;;20.30;39.00;;;;;;5041377;28;20505;-62
2024/01/19 11:30:31;;;;;;;13.70;13.20;;;20.30;39.00;;;;;;5033494;28;20464;-63
2024/01/19 11:33:15;;;;;;;13.70;13.30;;;20.30;39.10;;;;;;5042004;28;20445;-63
2024/01/19 11:35:42;;;;;;;14.27;13.87;;;20.20;38.90;;;;;;5044547;28;20879;-63
2024/01/19 11:38:09;;;;;;;13.20;12.80;;;20.20;39.00;;;;;;5041298;28;20440;-62
2024/01/19 11:40:48;;;;;;;14.13;13.63;;;20.30;39.10;;;;;;5041334;28;20473;-62
2024/01/19 11:43:39;;;;;;;14.00;13.50;;;20.20;39.00;;;;;;5043943;28;20440;-63
2024/01/19 11:46:06;;;;;;;13.73;13.20;;;20.20;39.00;;;;;;5042507;28;20586;-62
2024/01/19 11:48:41;;;;;;;13.30;12.90;;;20.20;39.00;;;;;;5041052;28;20469;-62
2024/01/19 11:51:09;;;;;;;14.10;13.60;;;20.20;39.00;;;;;;5043002;28;20445;-62
2024/01/19 11:53:55;;;;;;;13.67;13.17;;;20.20;39.00;;;;;;5044230;28;20447;-63
2024/01/19 11:56:24;;;;;;;13.70;13.30;;;20.20;39.00;;;;;;5033141;28;20459;-63
2024/01/19 11:58:51;;;;;;;14.00;13.60;;;20.20;39.60;;;;;;5040856;28;20476;-62
2024/01/19 12:01:18;;;;;;;13.40;13.00;;;20.20;39.00;;;;;;5044086;28;20464;-62
2024/01/19 12:03:46;;;;;;;13.70;13.30;;;20.20;39.10;;;;;;5044213;28;20464;-62
2024/01/19 12:06:16;;;;;;;13.40;13.00;;;20.20;39.00;;;;;;5041169;28;20460;-63
2024/01/19 12:08:43;;;;;;;13.87;13.37;;;20.20;39.00;;;;;;5040680;28;20449;-62
2024/01/19 12:11:11;;;;;;;13.07;12.67;;;20.20;39.00;;;;;;5042627;28;20445;-63
2024/01/19 12:13:40;;;;;;;13.93;13.43;;;20.20;39.00;;;;;;5044060;28;20476;-62
2024/01/19 12:16:08;;;;;;;13.43;12.93;;;20.30;39.10;;;;;;5041988;28;20464;-63
2024/01/19 12:18:37;;;;;;;14.80;14.40;;;20.20;39.00;;;;;;5040433;28;20437;-63
2024/01/19 12:21:06;;;;;;;13.60;13.10;;;20.20;39.00;;;;;;5041702;28;20472;-63
2024/01/19 12:23:33;;;;;;;15.17;14.50;;;20.20;38.90;;;;;;5043873;28;20437;-62
2024/01/19 12:26:03;;;;;;;14.87;14.37;;;20.20;38.90;;;;;;5042695;28;20460;-63
2024/01/19 12:28:31;;;;;;;14.53;14.03;;;20.20;38.90;;;;;;5040533;28;20477;-63
2024/01/19 12:31:00;;;;;;;13.63;13.23;;;20.20;38.90;;;;;;5040821;28;20675;-62